createdAt,value
2023-04-12T00:02:06.727Z,84.93
2023-04-12T00:04:35.968Z,84.98
2023-04-12T00:07:03.274Z,84.62
2023-04-12T00:09:32.986Z,84.64
2023-04-12T00:12:00.404Z,84.87
2023-04-12T00:14:27.628Z,84.62
2023-04-12T00:16:55.264Z,85.34
2023-04-12T00:19:25.862Z,85.20
2023-04-12T00:21:53.020Z,85.80
2023-04-12T00:24:20.176Z,86.74
2023-04-12T00:26:47.598Z,86.82
2023-04-12T00:29:16.124Z,86.87
2023-04-12T00:31:43.269Z,87.05
2023-04-12T00:34:10.685Z,87.29
2023-04-12T00:36:37.879Z,87.31
2023-04-12T00:39:05.008Z,87.75
2023-04-12T00:41:32.419Z,87.80
2023-04-12T00:43:59.899Z,88.57
2023-04-12T00:46:29.576Z,88.61
2023-04-12T00:48:57.837Z,89.08
2023-04-12T00:51:25.545Z,89.54
2023-04-12T00:53:58.159Z,89.35
2023-04-12T00:56:27.827Z,89.71
2023-04-12T00:58:56.667Z,89.58
2023-04-12T01:01:24.345Z,89.87
2023-04-12T01:03:53.528Z,89.83
2023-04-12T01:06:27.055Z,89.75
2023-04-12T01:09:16.624Z,89.71
2023-04-12T01:12:20.049Z,89.49
2023-04-12T01:15:12.247Z,89.73
2023-04-12T01:17:47.877Z,89.61
2023-04-12T01:20:19.958Z,89.58
2023-04-12T01:22:57.036Z,89.37
2023-04-12T01:25:51.127Z,89.72
2023-04-12T01:28:22.989Z,89.75
2023-04-12T01:30:54.185Z,89.92
2023-04-12T01:33:22.349Z,90.19
2023-04-12T01:35:50.102Z,90.45
2023-04-12T01:38:17.887Z,90.45
2023-04-12T01:40:45.216Z,90.51
2023-04-12T01:43:14.086Z,90.24
2023-04-12T01:45:41.952Z,90.28
2023-04-12T01:48:11.552Z,90.45
2023-04-12T01:50:41.815Z,90.97
2023-04-12T01:53:15.239Z,90.79
2023-04-12T01:55:45.858Z,91.11
2023-04-12T01:58:15.461Z,90.61
2023-04-12T02:00:44.072Z,90.30
2023-04-12T02:03:12.562Z,90.11
2023-04-12T02:05:40.060Z,89.71
2023-04-12T02:08:07.542Z,89.39
2023-04-12T02:10:36.751Z,88.62
2023-04-12T02:13:04.274Z,88.24
2023-04-12T02:15:31.580Z,88.31
2023-04-12T02:18:00.453Z,88.58
2023-04-12T02:20:29.409Z,88.85
2023-04-12T02:22:56.625Z,89.19
2023-04-12T02:25:23.982Z,88.41
2023-04-12T02:27:51.502Z,87.88
2023-04-12T02:30:19.014Z,87.44
2023-04-12T02:32:48.210Z,87.28
2023-04-12T02:35:19.078Z,87.28
2023-04-12T02:37:48.459Z,87.59
2023-04-12T02:40:16.177Z,87.80
2023-04-12T02:42:44.501Z,88.07
2023-04-12T02:45:12.456Z,88.15
2023-04-12T02:47:41.669Z,88.44
2023-04-12T02:50:09.372Z,88.74
2023-04-12T02:52:37.709Z,89.03
2023-04-12T02:55:06.040Z,89.37
2023-04-12T02:57:33.343Z,89.98
2023-04-12T03:00:01.649Z,90.64
2023-04-12T03:02:29.813Z,90.85
2023-04-12T03:04:58.615Z,90.62
2023-04-12T03:07:26.290Z,90.71
2023-04-12T03:09:53.800Z,90.70
2023-04-12T03:12:21.222Z,90.34
2023-04-12T03:14:49.155Z,90.71
2023-04-12T03:17:17.492Z,90.73
2023-04-12T03:19:44.857Z,90.74
2023-04-12T03:22:23.409Z,90.90
2023-04-12T03:24:51.750Z,90.90
2023-04-12T03:27:20.405Z,90.98
2023-04-12T03:29:47.886Z,91.03
2023-04-12T03:32:16.622Z,90.86
2023-04-12T03:34:45.758Z,90.34
2023-04-12T03:37:13.924Z,90.28
2023-04-12T03:39:41.829Z,90.11
2023-04-12T03:42:18.525Z,89.76
2023-04-12T03:44:54.042Z,89.51
2023-04-12T03:47:21.660Z,89.44
2023-04-12T03:50:01.783Z,89.24
2023-04-12T03:52:37.070Z,88.95
2023-04-12T03:55:07.348Z,88.23
2023-04-12T03:57:35.377Z,87.77
2023-04-12T04:00:08.622Z,88.31
2023-04-12T04:02:47.415Z,88.22
2023-04-12T04:05:15.858Z,87.46
2023-04-12T04:07:44.086Z,87.55
2023-04-12T04:10:12.471Z,87.23
2023-04-12T04:12:40.447Z,87.44
2023-04-12T04:15:10.403Z,86.81
2023-04-12T04:17:37.691Z,86.57
2023-04-12T04:20:07.452Z,86.15
2023-04-12T04:22:35.338Z,85.79
2023-04-12T04:25:03.064Z,85.29
2023-04-12T04:27:34.276Z,85.04
2023-04-12T04:30:02.699Z,82.78
2023-04-12T04:32:30.426Z,81.44
2023-04-12T04:35:01.149Z,80.01
2023-04-12T04:37:30.780Z,79.59
2023-04-12T04:39:58.914Z,79.82
2023-04-12T04:42:26.427Z,79.65
2023-04-12T04:45:02.676Z,78.68
2023-04-12T04:47:31.611Z,77.86
2023-04-12T04:50:00.010Z,75.48
2023-04-12T04:52:27.611Z,74.57
2023-04-12T04:54:57.787Z,76.35
2023-04-12T04:57:26.772Z,79.19
2023-04-12T04:59:55.140Z,81.50
2023-04-12T05:02:23.232Z,82.04
2023-04-12T05:04:51.321Z,82.88
2023-04-12T05:07:19.765Z,83.25
2023-04-12T05:09:47.351Z,83.53
2023-04-12T05:12:15.018Z,84.26
2023-04-12T05:14:47.057Z,84.93
2023-04-12T05:17:17.242Z,85.17
2023-04-12T05:19:44.871Z,85.47
2023-04-12T05:22:13.038Z,86.41
2023-04-12T05:24:40.985Z,85.91
2023-04-12T05:27:08.952Z,86.50
2023-04-12T05:29:36.313Z,86.64
2023-04-12T05:32:04.476Z,86.66
2023-04-12T05:34:31.713Z,86.69
2023-04-12T05:36:59.975Z,86.93
2023-04-12T05:39:28.556Z,86.37
2023-04-12T05:41:55.863Z,87.07
2023-04-12T05:44:25.679Z,86.57
2023-04-12T05:46:53.202Z,86.27
2023-04-12T05:49:20.516Z,86.19
2023-04-12T05:51:48.314Z,85.61
2023-04-12T05:54:20.964Z,86.20
2023-04-12T05:56:48.503Z,84.88
2023-04-12T05:59:16.400Z,85.25
2023-04-12T06:01:44.992Z,83.87
2023-04-12T06:04:12.884Z,84.64
2023-04-12T06:06:40.418Z,83.48
2023-04-12T06:09:07.637Z,83.50
2023-04-12T06:11:35.883Z,83.53
2023-04-12T06:14:03.227Z,82.40
2023-04-12T06:16:30.910Z,82.81
2023-04-12T06:18:58.997Z,82.21
2023-04-12T06:21:27.014Z,81.82
2023-04-12T06:23:54.419Z,81.92
2023-04-12T06:26:21.950Z,81.86
2023-04-12T06:28:49.273Z,80.89
2023-04-12T06:31:17.234Z,80.98
2023-04-12T06:33:45.335Z,81.09
2023-04-12T06:36:12.795Z,80.45
2023-04-12T06:38:40.178Z,80.47
2023-04-12T06:41:07.703Z,79.70
2023-04-12T06:43:35.048Z,77.67
2023-04-12T06:46:05.507Z,77.56
2023-04-12T06:48:32.990Z,78.39
2023-04-12T06:51:00.465Z,77.48
2023-04-12T06:53:27.689Z,78.56
2023-04-12T06:55:55.247Z,79.20
2023-04-12T06:58:22.458Z,78.46
2023-04-12T07:00:49.771Z,78.99
2023-04-12T07:03:17.879Z,78.73
2023-04-12T07:05:45.218Z,79.71
2023-04-12T07:08:12.411Z,78.80
2023-04-12T07:10:39.896Z,77.74
2023-04-12T07:13:08.324Z,78.28
2023-04-12T07:15:35.503Z,78.31
2023-04-12T07:18:03.040Z,78.81
2023-04-12T07:20:30.259Z,79.01
2023-04-12T07:22:57.572Z,76.02
2023-04-12T07:25:25.240Z,76.43
2023-04-12T07:27:52.501Z,77.40
2023-04-12T07:30:19.780Z,74.89
2023-04-12T07:32:47.372Z,75.34
2023-04-12T07:35:14.915Z,75.56
2023-04-12T07:37:42.133Z,74.27
2023-04-12T07:40:09.769Z,74.55
2023-04-12T07:42:36.961Z,73.59
2023-04-12T07:45:04.457Z,71.79
2023-04-12T07:47:32.946Z,71.63
2023-04-12T07:50:00.277Z,70.17
2023-04-12T07:52:27.517Z,69.91
2023-04-12T07:54:55.360Z,70.38
2023-04-12T07:57:23.522Z,68.20
2023-04-12T07:59:50.755Z,67.75
2023-04-12T08:02:27.786Z,71.74
2023-04-12T08:04:55.595Z,69.85
2023-04-12T08:07:23.974Z,68.58
2023-04-12T08:09:51.299Z,63.16
2023-04-12T08:12:18.886Z,62.87
2023-04-12T08:14:46.261Z,61.29
2023-04-12T08:17:13.604Z,62.29
2023-04-12T08:19:41.200Z,61.31
2023-04-12T08:22:08.385Z,59.75
2023-04-12T08:24:35.782Z,60.98
2023-04-12T08:27:03.583Z,59.09
2023-04-12T08:29:30.724Z,58.56
2023-04-12T08:32:00.786Z,59.73
2023-04-12T08:34:28.257Z,58.50
2023-04-12T08:36:55.975Z,58.06
2023-04-12T08:39:23.217Z,58.90
2023-04-12T08:41:50.924Z,56.58
2023-04-12T08:44:18.306Z,56.97
2023-04-12T08:46:46.002Z,56.04
2023-04-12T08:49:13.769Z,59.06
2023-04-12T08:51:41.020Z,57.83
2023-04-12T08:54:08.167Z,60.83
2023-04-12T08:56:36.500Z,59.61
2023-04-12T08:59:04.518Z,56.88
2023-04-12T09:01:31.711Z,54.05
2023-04-12T09:03:59.738Z,52.46
2023-04-12T09:06:27.486Z,53.27
2023-04-12T09:08:55.982Z,50.81
2023-04-12T09:11:28.076Z,50.10
2023-04-12T09:13:56.608Z,49.76
2023-04-12T09:16:43.069Z,51.21
2023-04-12T09:19:10.324Z,47.63
2023-04-12T09:21:52.444Z,45.20
2023-04-12T09:24:19.877Z,45.17
2023-04-12T09:26:47.418Z,45.70
2023-04-12T09:29:27.659Z,46.33
2023-04-12T09:32:07.650Z,44.58
2023-04-12T09:34:36.077Z,44.35
2023-04-12T09:37:14.726Z,45.48
2023-04-12T09:39:42.504Z,44.33
2023-04-12T09:42:25.466Z,44.05
2023-04-12T09:44:58.722Z,43.94
2023-04-12T09:47:40.026Z,45.15
2023-04-12T09:50:09.803Z,46.23
2023-04-12T09:52:38.932Z,44.48
2023-04-12T09:55:10.875Z,44.79
2023-04-12T09:57:41.018Z,45.27
2023-04-12T10:00:17.536Z,42.81
2023-04-12T10:02:51.837Z,42.70
2023-04-12T10:05:21.477Z,46.12
2023-04-12T10:07:50.321Z,42.79
2023-04-12T10:10:18.689Z,42.05
2023-04-12T10:12:47.771Z,42.44
2023-04-12T10:15:20.959Z,41.99
2023-04-12T10:17:51.942Z,42.31
2023-04-12T10:20:21.143Z,45.95
2023-04-12T10:22:50.327Z,43.40
2023-04-12T10:25:22.712Z,41.18
2023-04-12T10:27:50.647Z,40.62
2023-04-12T10:30:28.633Z,41.87
2023-04-12T10:33:05.497Z,44.44
2023-04-12T10:35:53.874Z,46.48
2023-04-12T10:38:21.999Z,43.36
2023-04-12T10:41:12.411Z,42.28
2023-04-12T10:43:41.441Z,43.60
2023-04-12T10:46:08.838Z,42.44
2023-04-12T10:48:40.152Z,45.24
2023-04-12T10:51:26.746Z,41.96
2023-04-12T10:54:07.334Z,42.21
2023-04-12T10:56:38.859Z,45.12
2023-04-12T10:59:13.071Z,42.04
2023-04-12T11:01:42.101Z,42.13
2023-04-12T11:04:17.117Z,42.35
2023-04-12T11:06:49.749Z,44.83
2023-04-12T11:09:29.608Z,38.11
2023-04-12T11:12:04.090Z,38.79
2023-04-12T11:14:46.701Z,41.13
2023-04-12T11:17:17.431Z,41.86
2023-04-12T11:19:49.011Z,39.86
2023-04-12T11:22:17.942Z,40.60
2023-04-12T11:24:52.829Z,37.70
2023-04-12T11:27:21.877Z,39.99
2023-04-12T11:29:51.566Z,37.94
2023-04-12T11:32:19.278Z,38.41
2023-04-12T11:34:47.690Z,39.81
2023-04-12T11:37:15.094Z,39.27
2023-04-12T11:39:44.158Z,36.77
2023-04-12T11:42:29.774Z,38.78
2023-04-12T11:45:01.082Z,40.64
2023-04-12T11:47:30.939Z,36.66
2023-04-12T11:49:59.178Z,37.84
2023-04-12T11:52:31.089Z,37.92
2023-04-12T11:55:05.220Z,40.88
2023-04-12T11:57:32.823Z,41.09
2023-04-12T12:00:01.597Z,41.46
2023-04-12T12:02:32.973Z,42.11
2023-04-12T12:05:03.021Z,39.50
2023-04-12T12:07:30.789Z,40.75
2023-04-12T12:09:58.162Z,40.14
2023-04-12T12:12:25.891Z,40.15
2023-04-12T12:14:53.056Z,40.82
2023-04-12T12:17:20.495Z,40.06
2023-04-12T12:19:48.482Z,38.53
2023-04-12T12:22:21.858Z,38.88
2023-04-12T12:24:57.103Z,37.37
2023-04-12T12:27:30.434Z,37.56
2023-04-12T12:30:01.229Z,36.58
2023-04-12T12:32:33.423Z,37.43
2023-04-12T12:35:01.681Z,39.59
2023-04-12T12:37:29.874Z,39.91
2023-04-12T12:40:16.812Z,39.99
2023-04-12T12:42:55.148Z,38.91
2023-04-12T12:45:24.713Z,38.76
2023-04-12T12:47:53.580Z,39.09
2023-04-12T12:50:24.854Z,37.44
2023-04-12T12:52:53.491Z,38.92
2023-04-12T12:55:22.020Z,38.17
2023-04-12T12:58:05.883Z,38.46
2023-04-12T13:00:36.462Z,37.76
2023-04-12T13:03:04.243Z,37.02
2023-04-12T13:05:31.865Z,36.98
2023-04-12T13:07:59.305Z,38.78
2023-04-12T13:10:27.438Z,36.14
2023-04-12T13:12:54.643Z,35.08
2023-04-12T13:15:24.164Z,34.53
2023-04-12T13:17:52.450Z,34.88
2023-04-12T13:20:19.839Z,34.96
2023-04-12T13:22:47.319Z,35.08
2023-04-12T13:25:14.566Z,34.22
2023-04-12T13:27:41.767Z,33.76
2023-04-12T13:30:11.709Z,33.23
2023-04-12T13:32:38.851Z,31.53
2023-04-12T13:35:06.452Z,33.36
2023-04-12T13:37:34.196Z,33.12
2023-04-12T13:40:01.323Z,34.08
2023-04-12T13:42:28.595Z,33.67
2023-04-12T13:44:56.942Z,30.75
2023-04-12T13:47:24.215Z,31.32
2023-04-12T13:49:51.532Z,32.51
2023-04-12T13:52:18.931Z,33.90
2023-04-12T13:54:46.184Z,33.39
2023-04-12T13:57:13.356Z,32.98
2023-04-12T13:59:40.932Z,34.17
2023-04-12T14:02:08.108Z,32.60
2023-04-12T14:04:35.686Z,35.54
2023-04-12T14:07:02.991Z,32.27
2023-04-12T14:09:32.163Z,32.81
2023-04-12T14:12:01.474Z,32.23
2023-04-12T14:14:28.758Z,31.40
2023-04-12T14:17:01.843Z,31.25
2023-04-12T14:19:29.409Z,32.14
2023-04-12T14:21:56.865Z,32.88
2023-04-12T14:24:24.120Z,31.02
2023-04-12T14:26:51.555Z,30.19
2023-04-12T14:29:19.089Z,30.87
2023-04-12T14:31:46.517Z,30.42
2023-04-12T14:34:14.095Z,29.83
2023-04-12T14:36:41.323Z,30.21
2023-04-12T14:39:11.630Z,29.99
2023-04-12T14:41:40.668Z,30.53
2023-04-12T14:44:07.838Z,29.70
2023-04-12T14:46:34.997Z,29.99
2023-04-12T14:49:02.654Z,30.73
2023-04-12T14:51:29.851Z,31.00
2023-04-12T14:53:57.870Z,30.21
2023-04-12T14:56:29.205Z,32.06
2023-04-12T14:58:57.596Z,31.44
2023-04-12T15:01:25.799Z,29.19
2023-04-12T15:03:53.840Z,29.71
2023-04-12T15:06:23.541Z,30.05
2023-04-12T15:08:55.020Z,32.43
2023-04-12T15:11:26.512Z,31.00
2023-04-12T15:13:54.979Z,28.60
2023-04-12T15:16:23.407Z,28.39
2023-04-12T15:18:51.355Z,29.20
2023-04-12T15:21:18.706Z,28.19
2023-04-12T15:23:47.251Z,28.06
2023-04-12T15:26:14.687Z,31.89
2023-04-12T15:28:42.353Z,26.58
2023-04-12T15:31:11.961Z,27.12
2023-04-12T15:33:39.218Z,25.71
2023-04-12T15:36:06.766Z,27.54
2023-04-12T15:38:41.371Z,28.59
2023-04-12T15:41:08.940Z,26.40
2023-04-12T15:43:37.038Z,27.22
2023-04-12T15:46:04.443Z,25.56
2023-04-12T15:48:31.772Z,25.69
2023-04-12T15:50:59.508Z,26.25
2023-04-12T15:53:30.314Z,26.64
2023-04-12T15:55:57.721Z,27.56
2023-04-12T15:58:26.982Z,28.64
2023-04-12T16:00:54.511Z,27.07
2023-04-12T16:03:26.229Z,27.63
2023-04-12T16:05:54.341Z,27.87
2023-04-12T16:08:22.277Z,27.59
2023-04-12T16:10:50.766Z,28.58
2023-04-12T16:13:18.499Z,27.27
2023-04-12T16:15:47.708Z,27.55
2023-04-12T16:18:17.357Z,27.90
2023-04-12T16:20:45.331Z,28.39
2023-04-12T16:23:14.805Z,28.89
2023-04-12T16:25:42.102Z,29.64
2023-04-12T16:28:12.393Z,29.82
2023-04-12T16:30:40.172Z,30.33
2023-04-12T16:33:07.944Z,31.53
2023-04-12T16:35:35.770Z,31.38
2023-04-12T16:38:05.213Z,31.74
2023-04-12T16:40:32.736Z,32.38
2023-04-12T16:43:00.299Z,31.90
2023-04-12T16:45:27.854Z,33.71
2023-04-12T16:47:58.368Z,36.62
2023-04-12T16:50:31.826Z,37.58
2023-04-12T16:53:00.769Z,39.70
2023-04-12T16:55:30.031Z,40.41
2023-04-12T16:57:58.340Z,41.18
2023-04-12T17:00:30.200Z,43.17
2023-04-12T17:02:58.516Z,44.38
2023-04-12T17:05:27.277Z,43.42
2023-04-12T17:07:55.176Z,44.01
2023-04-12T17:10:24.576Z,44.84
2023-04-12T17:12:55.270Z,45.78
2023-04-12T17:15:23.151Z,46.75
2023-04-12T17:18:02.353Z,46.41
2023-04-12T17:20:30.796Z,47.31
2023-04-12T17:22:58.931Z,47.68
2023-04-12T17:25:31.197Z,47.68
2023-04-12T17:28:05.674Z,48.13
2023-04-12T17:30:33.094Z,48.91
2023-04-12T17:33:01.691Z,50.17
2023-04-12T17:35:29.462Z,50.16
2023-04-12T17:37:56.818Z,50.05
2023-04-12T17:40:24.293Z,51.21
2023-04-12T17:42:51.461Z,51.05
2023-04-12T17:45:21.525Z,51.82
2023-04-12T17:47:49.278Z,51.65
2023-04-12T17:50:17.557Z,52.72
2023-04-12T17:52:44.693Z,53.23
2023-04-12T17:55:12.891Z,53.75
2023-04-12T17:57:42.485Z,53.66
2023-04-12T18:00:11.826Z,53.83
2023-04-12T18:02:40.848Z,54.50
2023-04-12T18:05:08.827Z,55.04
2023-04-12T18:07:37.152Z,56.00
2023-04-12T18:10:05.365Z,56.15
2023-04-12T18:12:32.961Z,55.65
2023-04-12T18:15:02.491Z,55.34
2023-04-12T18:17:30.685Z,55.94
2023-04-12T18:20:02.574Z,56.54
2023-04-12T18:22:30.507Z,56.80
2023-04-12T18:25:00.391Z,56.26
2023-04-12T18:27:27.910Z,55.93
2023-04-12T18:29:56.642Z,55.74
2023-04-12T18:32:24.414Z,55.71
2023-04-12T18:34:51.855Z,55.24
2023-04-12T18:37:19.937Z,55.51
2023-04-12T18:39:47.985Z,56.02
2023-04-12T18:42:15.816Z,55.67
2023-04-12T18:44:44.893Z,57.18
2023-04-12T18:47:12.848Z,55.61
2023-04-12T18:49:40.214Z,56.15
2023-04-12T18:52:07.778Z,55.80
2023-04-12T18:54:36.013Z,56.99
2023-04-12T18:57:03.453Z,55.79
2023-04-12T18:59:30.886Z,56.08
2023-04-12T19:02:01.590Z,56.94
2023-04-12T19:04:28.742Z,58.42
2023-04-12T19:06:56.204Z,58.75
2023-04-12T19:09:23.647Z,61.33
2023-04-12T19:11:50.742Z,60.75
2023-04-12T19:14:17.864Z,62.00
2023-04-12T19:16:45.387Z,60.66
2023-04-12T19:19:15.512Z,60.21
2023-04-12T19:21:42.779Z,60.92
2023-04-12T19:24:10.759Z,62.19
2023-04-12T19:26:40.098Z,63.39
2023-04-12T19:29:07.225Z,61.33
2023-04-12T19:31:35.172Z,62.87
2023-04-12T19:34:02.751Z,63.25
2023-04-12T19:36:29.934Z,61.69
2023-04-12T19:38:57.926Z,61.92
2023-04-12T19:41:25.440Z,61.61
2023-04-12T19:43:52.751Z,62.23
2023-04-12T19:46:22.335Z,62.29
2023-04-12T19:48:49.725Z,61.20
2023-04-12T19:51:17.001Z,61.92
2023-04-12T19:53:46.272Z,61.95
2023-04-12T19:56:16.362Z,61.64
2023-04-12T19:58:44.537Z,62.11
2023-04-12T20:01:13.836Z,61.30
2023-04-12T20:03:43.855Z,62.41
2023-04-12T20:06:11.112Z,62.57
2023-04-12T20:08:39.584Z,62.69
2023-04-12T20:11:07.592Z,62.07
2023-04-12T20:13:36.250Z,62.32
2023-04-12T20:16:04.486Z,62.74
2023-04-12T20:18:32.674Z,63.37
2023-04-12T20:20:59.883Z,62.96
2023-04-12T20:23:28.350Z,62.68
2023-04-12T20:25:55.866Z,64.12
2023-04-12T20:28:23.423Z,64.56
2023-04-12T20:30:50.647Z,63.92
2023-04-12T20:33:19.864Z,64.22
2023-04-12T20:35:46.971Z,63.53
2023-04-12T20:38:15.154Z,63.55
2023-04-12T20:40:42.559Z,63.87
2023-04-12T20:43:10.514Z,65.58
2023-04-12T20:45:38.059Z,65.00
2023-04-12T20:48:05.783Z,66.11
2023-04-12T20:50:33.121Z,65.42
2023-04-12T20:53:00.321Z,64.82
2023-04-12T20:55:32.910Z,64.74
2023-04-12T20:58:00.799Z,65.89
2023-04-12T21:00:29.546Z,65.07
2023-04-12T21:02:58.314Z,64.79
2023-04-12T21:05:27.306Z,66.19
2023-04-12T21:07:54.900Z,67.78
2023-04-12T21:10:22.300Z,68.32
2023-04-12T21:12:50.101Z,67.10
2023-04-12T21:15:21.853Z,67.12
2023-04-12T21:17:50.687Z,68.65
2023-04-12T21:20:18.796Z,67.79
2023-04-12T21:22:47.870Z,68.14
2023-04-12T21:25:16.256Z,68.85
2023-04-12T21:27:46.256Z,68.72
2023-04-12T21:30:13.894Z,68.86
2023-04-12T21:32:42.817Z,67.93
2023-04-12T21:35:11.262Z,67.69
2023-04-12T21:37:39.473Z,67.92
2023-04-12T21:40:12.368Z,68.61
2023-04-12T21:42:40.969Z,68.04
2023-04-12T21:45:09.622Z,69.03
2023-04-12T21:47:39.371Z,70.33
2023-04-12T21:50:07.900Z,71.33
2023-04-12T21:52:35.062Z,71.79
2023-04-12T21:55:02.976Z,72.06
2023-04-12T21:57:34.166Z,71.91
2023-04-12T22:00:02.078Z,71.51
2023-04-12T22:02:39.199Z,71.96
2023-04-12T22:05:07.558Z,71.60
2023-04-12T22:07:35.292Z,71.48
2023-04-12T22:10:02.534Z,71.47
2023-04-12T22:12:29.999Z,71.27
2023-04-12T22:14:57.663Z,70.20
2023-04-12T22:17:24.994Z,70.80
2023-04-12T22:19:56.513Z,70.51
2023-04-12T22:22:24.796Z,71.46
2023-04-12T22:24:52.723Z,71.59
2023-04-12T22:27:20.199Z,71.87
2023-04-12T22:29:49.866Z,71.25
2023-04-12T22:32:16.994Z,72.38
2023-04-12T22:34:45.023Z,73.62
2023-04-12T22:37:13.594Z,73.33
2023-04-12T22:39:40.668Z,73.25
2023-04-12T22:42:08.060Z,73.09
2023-04-12T22:44:38.085Z,72.93
2023-04-12T22:47:07.106Z,73.52
2023-04-12T22:49:44.644Z,74.42
2023-04-12T22:52:12.118Z,74.63
2023-04-12T22:54:40.340Z,74.50
2023-04-12T22:57:07.594Z,74.31
2023-04-12T22:59:34.977Z,74.55
2023-04-12T23:02:02.697Z,74.32
2023-04-12T23:04:29.955Z,75.32
2023-04-12T23:06:57.170Z,74.80
2023-04-12T23:09:25.591Z,74.79
2023-04-12T23:11:52.826Z,74.46
2023-04-12T23:14:19.965Z,74.65
2023-04-12T23:16:47.469Z,74.86
2023-04-12T23:19:14.843Z,75.46
2023-04-12T23:21:42.164Z,75.33
2023-04-12T23:24:12.099Z,75.45
2023-04-12T23:26:39.445Z,74.88
2023-04-12T23:29:06.712Z,75.41
2023-04-12T23:31:34.263Z,74.25
2023-04-12T23:34:02.823Z,74.80
2023-04-12T23:36:30.635Z,74.31
2023-04-12T23:39:05.177Z,74.29
2023-04-12T23:41:32.367Z,74.59
2023-04-12T23:44:00.285Z,74.75
2023-04-12T23:46:27.981Z,74.81
2023-04-12T23:48:55.318Z,75.01
2023-04-12T23:51:22.841Z,73.53
2023-04-12T23:53:50.362Z,74.00
2023-04-12T23:56:17.584Z,73.35
2023-04-12T23:58:45.083Z,74.28
